Nagagami, Canada
Current Conditions -  °F | °C
As of 2:03 PM on Monday 20 Oct 2014 (Local Time) from CYMO Reporting Station
Broken Clouds Broken Clouds  
Wind Chill: 40°   Ceiling: 3700
Heat Index: 43°   Visibility: 9mi
Dew Point: 28°   Wind: 5mph
Humidity: 57%   Direction: 60°ENE
Pressure: 29.96"   Gusts: NA
Location:  50.56°N, 81.95°W
Report Text: CYMO 201803Z AUTO 06004KT 040V110 9SM BKN037 06/M02 A2996 RMK TS/LTNG TEMPO UNAVBL SLP146
Loading
Personal Weather Stations






























Interactive Weather Map
Tropical Storm Tracking
New forecast layout! Learn more

10-Day Weather Forecast

Advertisements
Track Severe Weather on mobile